Time;durP1;ratioP1;P1;durP2;ratioP2;P2;SDS_P1;SDS_P2;PMS_P1;PMS_P2;Temp;Humidity;BMP_temperature;BMP_pressure;BME280_temperature;BME280_humidity;BME280_pressure;Samples;Min_cycle;Max_cycle;Signal;HPM_P1;HPM_P2
2022/04/11 00:00:38;;;;;;;3.17;1.77;;;8.50;63.20;;;;;;5069546;28;20196;-77
2022/04/11 00:03:04;;;;;;;6.57;2.00;;;8.50;63.40;;;;;;5069579;28;20161;-77
2022/04/11 00:05:30;;;;;;;3.23;2.10;;;8.50;63.10;;;;;;5071122;28;20207;-78
2022/04/11 00:07:55;;;;;;;2.97;1.43;;;8.50;63.30;;;;;;5070722;28;20664;-77
2022/04/11 00:10:21;;;;;;;3.23;1.70;;;8.40;63.20;;;;;;5070795;28;20167;-77
2022/04/11 00:12:47;;;;;;;3.70;1.40;;;8.40;63.20;;;;;;5070843;28;20164;-77
2022/04/11 00:15:12;;;;;;;3.00;1.30;;;8.40;63.80;;;;;;5070812;28;20165;-77
2022/04/11 00:17:38;;;;;;;2.60;1.40;;;8.40;63.30;;;;;;5070493;28;20333;-77
2022/04/11 00:20:05;;;;;;;5.10;1.67;;;8.40;63.60;;;;;;5070390;28;20242;-78
2022/04/11 00:22:35;;;;;;;3.90;1.75;;;8.30;63.60;;;;;;5070717;28;20168;-78
2022/04/11 00:25:02;;;;;;;2.55;1.85;;;8.30;63.80;;;;;;5052620;28;20176;-77
2022/04/11 00:27:28;;;;;;;2.75;1.60;;;8.30;63.70;;;;;;5068936;28;20189;-77
2022/04/11 00:29:54;;;;;;;2.53;1.53;;;8.30;64.00;;;;;;5069322;28;20652;-77
2022/04/11 00:32:20;;;;;;;5.40;1.83;;;8.30;64.10;;;;;;5069414;28;20187;-77
2022/04/11 00:34:46;;;;;;;4.90;1.60;;;8.30;63.90;;;;;;5069440;28;20676;-77
2022/04/11 00:37:12;;;;;;;2.33;1.60;;;8.30;64.00;;;;;;5068920;28;20196;-77
2022/04/11 00:39:38;;;;;;;2.30;1.67;;;8.20;63.90;;;;;;5070559;28;20207;-77
2022/04/11 00:42:11;;;;;;;2.37;1.93;;;8.20;64.60;;;;;;5069269;28;20188;-78
2022/04/11 00:44:37;;;;;;;3.50;2.08;;;8.20;65.90;;;;;;5070247;28;20656;-77
2022/04/11 00:47:03;;;;;;;3.20;1.50;;;8.10;65.40;;;;;;5072129;28;20230;-77
2022/04/11 00:49:29;;;;;;;2.55;1.63;;;8.20;65.10;;;;;;5072543;28;20173;-77
2022/04/11 00:51:56;;;;;;;2.60;1.47;;;8.10;65.00;;;;;;5073752;28;20153;-77
2022/04/11 00:54:22;;;;;;;3.20;1.33;;;8.10;65.10;;;;;;5072464;28;20596;-77
2022/04/11 00:56:49;;;;;;;3.95;1.67;;;8.10;65.20;;;;;;5072651;28;20586;-77
2022/04/11 00:59:15;;;;;;;3.10;1.38;;;8.10;65.80;;;;;;5055683;28;20259;-77
2022/04/11 01:01:41;;;;;;;2.65;1.58;;;8.10;65.80;;;;;;5072444;28;20180;-77
2022/04/11 01:04:23;;;;;;;3.13;1.83;;;8.10;66.20;;;;;;5073945;28;20648;-77
2022/04/11 01:06:55;;;;;;;4.75;1.50;;;8.10;65.70;;;;;;5072402;28;20184;-77
2022/04/11 01:09:23;;;;;;;5.88;1.58;;;8.10;66.40;;;;;;5073506;28;20593;-77
2022/04/11 01:11:50;;;;;;;3.05;1.40;;;8.10;65.80;;;;;;5055607;28;20172;-77
2022/04/11 01:14:16;;;;;;;2.63;1.85;;;8.10;66.70;;;;;;5072448;28;20176;-77
2022/04/11 01:16:49;;;;;;;2.67;1.67;;;8.10;65.90;;;;;;5073335;28;20187;-77
2022/04/11 01:19:16;;;;;;;3.22;1.25;;;8.10;66.20;;;;;;5071822;28;20184;-77
2022/04/11 01:21:43;;;;;;;2.75;1.20;;;8.10;65.90;;;;;;5055330;28;20160;-77
2022/04/11 01:24:09;;;;;;;3.72;1.90;;;8.10;66.00;;;;;;5072511;28;20211;-77
2022/04/11 01:26:36;;;;;;;2.70;1.20;;;8.10;66.10;;;;;;5072140;28;20683;-77
2022/04/11 01:29:04;;;;;;;2.75;1.90;;;8.10;66.10;;;;;;5071765;28;20164;-77
2022/04/11 01:31:31;;;;;;;4.90;1.85;;;8.10;66.50;;;;;;5055386;28;20176;-77
2022/04/11 01:33:57;;;;;;;4.28;1.42;;;8.10;66.80;;;;;;5072040;28;20574;-77
2022/04/11 01:36:23;;;;;;;2.93;1.30;;;8.10;66.70;;;;;;5072045;28;20253;-78
2022/04/11 01:38:49;;;;;;;3.13;1.52;;;8.10;66.90;;;;;;5054948;28;20575;-77
2022/04/11 01:41:15;;;;;;;8.38;1.85;;;8.10;66.90;;;;;;5071867;28;20199;-77
2022/04/11 01:43:40;;;;;;;2.57;1.30;;;8.10;66.90;;;;;;5055215;28;20176;-77
2022/04/11 01:46:07;;;;;;;3.88;1.55;;;8.10;67.10;;;;;;5071826;28;20238;-77
2022/04/11 01:48:38;;;;;;;3.10;1.58;;;8.10;67.70;;;;;;5071665;28;20156;-77
2022/04/11 01:51:04;;;;;;;2.53;1.83;;;8.10;67.40;;;;;;5071598;28;20169;-77
2022/04/11 01:53:30;;;;;;;3.30;1.67;;;8.10;67.30;;;;;;5072902;28;20176;-77
2022/04/11 01:55:56;;;;;;;2.50;1.37;;;8.10;68.30;;;;;;5071472;28;20210;-77
2022/04/11 01:58:22;;;;;;;4.05;1.60;;;8.10;68.10;;;;;;5070623;28;20602;-77
2022/04/11 02:00:47;;;;;;;2.83;1.10;;;8.00;68.50;;;;;;5071577;28;20746;-77
2022/04/11 02:03:14;;;;;;;3.50;1.73;;;8.10;68.00;;;;;;5072766;28;20617;-77
2022/04/11 02:05:42;;;;;;;2.25;1.52;;;8.10;67.80;;;;;;5072461;28;20682;-77
2022/04/11 02:08:10;;;;;;;1.88;1.40;;;8.10;67.80;;;;;;5071086;28;20558;-78
2022/04/11 02:10:37;;;;;;;2.92;1.30;;;8.10;67.70;;;;;;5071378;28;20188;-77
2022/04/11 02:13:04;;;;;;;3.45;1.60;;;8.10;68.60;;;;;;5071381;28;20172;-77
2022/04/11 02:15:30;;;;;;;3.30;1.77;;;8.10;67.70;;;;;;5072638;28;20262;-77
2022/04/11 02:17:56;;;;;;;4.72;1.90;;;8.10;67.90;;;;;;5070781;28;20187;-77
2022/04/11 02:20:22;;;;;;;1.92;1.35;;;8.10;67.90;;;;;;5071002;28;20200;-78
2022/04/11 02:22:50;;;;;;;4.15;1.80;;;8.00;67.90;;;;;;5071112;28;20168;-78
2022/04/11 02:25:17;;;;;;;1.70;1.00;;;8.00;68.30;;;;;;5072338;28;20213;-77
2022/04/11 02:27:44;;;;;;;4.10;2.28;;;8.00;68.30;;;;;;5054054;28;20192;-77
2022/04/11 02:30:11;;;;;;;2.63;1.55;;;7.90;68.10;;;;;;5070847;28;20179;-77
2022/04/11 02:32:37;;;;;;;4.40;1.85;;;7.90;68.30;;;;;;5070803;28;20173;-77
2022/04/11 02:35:03;;;;;;;2.88;1.20;;;7.90;68.40;;;;;;5070772;28;20167;-77
2022/04/11 02:37:29;;;;;;;2.15;1.30;;;7.90;68.50;;;;;;5071780;28;20489;-77
2022/04/11 02:39:55;;;;;;;2.37;1.43;;;7.90;69.30;;;;;;5070711;28;20330;-77
2022/04/11 02:42:22;;;;;;;3.20;1.33;;;7.90;68.50;;;;;;5070752;28;20566;-77
2022/04/11 02:44:49;;;;;;;3.28;1.42;;;7.90;68.60;;;;;;5070500;28;20570;-77
2022/04/11 02:47:15;;;;;;;4.45;1.40;;;7.80;69.70;;;;;;5070119;28;20266;-77
2022/04/11 02:49:41;;;;;;;3.60;1.30;;;7.80;69.10;;;;;;5070308;28;20577;-77
2022/04/11 02:52:21;;;;;;;2.10;1.20;;;7.80;69.20;;;;;;5070646;28;20655;-77
2022/04/11 02:54:48;;;;;;;2.75;1.33;;;7.80;69.40;;;;;;5070283;28;20168;-77
2022/04/11 02:57:14;;;;;;;2.20;1.40;;;7.80;70.00;;;;;;5070142;28;20729;-77
2022/04/11 02:59:40;;;;;;;2.70;1.47;;;7.80;69.40;;;;;;5070200;28;20633;-77
2022/04/11 03:02:05;;;;;;;3.40;1.30;;;7.80;70.30;;;;;;5070386;28;20962;-76
2022/04/11 03:04:32;;;;;;;2.35;1.30;;;7.80;69.70;;;;;;5068909;22;20694;-74
2022/04/11 03:07:09;;;;;;;1.90;0.90;;;7.80;69.80;;;;;;5004578;28;20200;-76
2022/04/11 03:09:39;;;;;;;3.15;1.30;;;7.80;69.70;;;;;;5006816;28;20193;-77
2022/04/11 03:12:21;;;;;;;3.35;1.20;;;7.80;69.70;;;;;;5014471;28;20224;-77
2022/04/11 03:14:49;;;;;;;2.78;1.15;;;7.80;70.10;;;;;;5017848;28;20199;-77
2022/04/11 03:17:18;;;;;;;1.83;1.08;;;7.80;70.20;;;;;;5018008;28;20625;-77
2022/04/11 03:19:48;;;;;;;5.75;1.75;;;7.80;70.10;;;;;;5033577;28;20741;-77
2022/04/11 03:22:15;;;;;;;3.28;1.35;;;7.80;70.40;;;;;;5026414;28;20197;-77
2022/04/11 03:24:47;;;;;;;3.40;1.42;;;7.80;70.30;;;;;;5083049;23;20189;-77
2022/04/11 03:27:13;;;;;;;2.53;1.10;;;7.80;70.30;;;;;;5047732;28;20169;-77
2022/04/11 03:29:38;;;;;;;1.83;1.37;;;7.80;70.40;;;;;;5063220;28;20225;-77
2022/04/11 03:32:14;;;;;;;2.65;1.25;;;7.80;70.40;;;;;;5045015;28;20168;-77
2022/04/11 03:34:40;;;;;;;2.28;1.10;;;7.80;70.40;;;;;;5036301;28;21495;-77
2022/04/11 03:37:07;;;;;;;2.88;1.67;;;7.80;70.50;;;;;;5053491;28;20180;-76
2022/04/11 03:39:39;;;;;;;3.95;1.20;;;7.80;70.70;;;;;;5053215;28;20206;-77
2022/04/11 03:42:05;;;;;;;3.85;1.50;;;7.80;70.70;;;;;;5076651;28;20171;-77
2022/04/11 03:44:35;;;;;;;2.60;1.70;;;7.80;70.70;;;;;;5073610;28;20160;-77
2022/04/11 03:47:12;;;;;;;4.63;1.30;;;7.80;70.90;;;;;;5078670;28;20206;-77
2022/04/11 03:49:38;;;;;;;3.77;1.27;;;7.80;71.00;;;;;;5095680;28;20166;-77
2022/04/11 03:52:13;;;;;;;5.05;1.77;;;7.80;71.00;;;;;;5068821;28;20716;-77
2022/04/11 03:54:40;;;;;;;4.63;1.40;;;7.70;71.00;;;;;;5058327;28;20185;-77
2022/04/11 03:57:06;;;;;;;3.30;1.40;;;7.80;71.20;;;;;;5065297;28;20175;-77
2022/04/11 03:59:35;;;;;;;2.15;1.40;;;7.80;71.30;;;;;;5083981;28;20167;-77
2022/04/11 04:02:02;;;;;;;2.70;1.30;;;7.80;71.60;;;;;;5111771;28;20182;-77
2022/04/11 04:04:28;;;;;;;1.60;1.45;;;7.80;71.90;;;;;;5076410;28;20175;-77
2022/04/11 04:06:54;;;;;;;3.00;1.25;;;7.80;71.70;;;;;;5063474;28;20195;-76
2022/04/11 04:09:20;;;;;;;2.78;1.42;;;7.80;71.70;;;;;;5090251;28;20255;-77
2022/04/11 04:11:46;;;;;;;1.95;1.10;;;7.80;72.40;;;;;;5112216;28;20254;-76
2022/04/11 04:14:21;;;;;;;2.13;1.42;;;7.80;71.90;;;;;;5094275;28;20726;-76
2022/04/11 04:16:54;;;;;;;2.75;1.50;;;7.80;71.90;;;;;;5079563;28;20168;-76
2022/04/11 04:19:29;;;;;;;2.90;1.40;;;7.80;71.90;;;;;;5092365;28;20656;-75
2022/04/11 04:22:01;;;;;;;4.45;1.67;;;7.70;71.80;;;;;;5096476;28;20193;-76
2022/04/11 04:24:27;;;;;;;3.47;1.45;;;7.70;71.90;;;;;;5097428;28;20163;-76
2022/04/11 04:27:03;;;;;;;3.30;1.50;;;7.70;72.60;;;;;;5097613;28;20167;-76
2022/04/11 04:29:30;;;;;;;2.10;1.25;;;7.60;72.50;;;;;;5090155;28;20176;-76
2022/04/11 04:32:00;;;;;;;3.10;1.70;;;7.60;72.40;;;;;;5091403;28;20193;-76
2022/04/11 04:34:31;;;;;;;2.45;1.58;;;7.60;72.60;;;;;;5096657;28;20537;-77
2022/04/11 04:36:59;;;;;;;2.30;1.45;;;7.50;73.20;;;;;;5097116;28;20171;-76
2022/04/11 04:39:26;;;;;;;4.35;1.35;;;7.50;72.90;;;;;;5102892;28;20175;-76
2022/04/11 04:41:52;;;;;;;2.83;1.35;;;7.50;72.80;;;;;;5090559;28;20254;-76
2022/04/11 04:44:20;;;;;;;3.75;1.30;;;7.40;73.40;;;;;;5113980;28;20163;-77
2022/04/11 04:46:50;;;;;;;4.85;1.55;;;7.40;73.10;;;;;;5094740;28;20159;-77
2022/04/11 04:49:38;;;;;;;2.28;1.40;;;7.40;74.20;;;;;;5084712;28;20179;-77
2022/04/11 04:52:06;;;;;;;2.55;1.20;;;7.30;73.30;;;;;;5078522;28;20199;-76
2022/04/11 04:54:37;;;;;;;1.90;1.40;;;7.30;74.40;;;;;;5081932;28;20178;-76
2022/04/11 04:57:04;;;;;;;2.85;1.55;;;7.30;73.90;;;;;;5086634;28;20262;-76
2022/04/11 04:59:30;;;;;;;2.20;1.80;;;7.20;74.00;;;;;;5081380;28;20168;-77
2022/04/11 05:02:02;;;;;;;2.85;1.45;;;7.20;73.90;;;;;;5088992;28;20171;-76
2022/04/11 05:04:29;;;;;;;2.70;1.40;;;7.20;75.00;;;;;;5095168;28;20171;-76
2022/04/11 05:06:57;;;;;;;1.77;1.33;;;7.20;74.50;;;;;;5066934;28;20172;-77
2022/04/11 05:09:25;;;;;;;2.35;1.10;;;7.20;74.70;;;;;;5082884;28;20715;-76
2022/04/11 05:11:52;;;;;;;2.95;1.35;;;7.20;74.60;;;;;;5061582;28;20178;-76
2022/04/11 05:14:18;;;;;;;2.73;1.10;;;7.10;75.00;;;;;;5089957;28;20623;-76
2022/04/11 05:16:45;;;;;;;1.80;1.35;;;7.10;74.80;;;;;;5088208;28;20191;-76
2022/04/11 05:19:14;;;;;;;3.78;1.30;;;7.10;74.80;;;;;;5076742;28;20211;-76
2022/04/11 05:21:40;;;;;;;2.00;1.50;;;7.10;75.10;;;;;;5084029;28;20280;-77
2022/04/11 05:24:06;;;;;;;7.53;2.20;;;7.10;75.10;;;;;;5094222;28;20171;-76
2022/04/11 05:26:32;;;;;;;4.72;1.42;;;7.10;75.30;;;;;;5060820;28;20201;-76
2022/04/11 05:28:59;;;;;;;3.45;1.70;;;7.20;75.70;;;;;;5087161;28;20175;-76
2022/04/11 05:31:25;;;;;;;4.00;2.27;;;7.20;76.10;;;;;;5077963;28;20656;-76
2022/04/11 05:33:52;;;;;;;2.97;1.50;;;7.10;77.60;;;;;;5098915;28;20337;-76
2022/04/11 05:36:19;;;;;;;4.30;2.10;;;7.20;76.70;;;;;;5082772;28;20213;-76
2022/04/11 05:38:46;;;;;;;7.85;2.00;;;7.20;76.60;;;;;;5067397;28;20535;-77
2022/04/11 05:41:14;;;;;;;5.70;1.70;;;7.30;77.30;;;;;;5074987;28;20199;-76
2022/04/11 05:43:47;;;;;;;3.95;1.30;;;7.30;77.20;;;;;;5101038;28;20642;-81
2022/04/11 05:46:15;;;;;;;4.93;1.85;;;7.30;77.10;;;;;;5060863;28;20643;-82
2022/04/11 05:48:47;;;;;;;4.53;1.80;;;7.40;77.10;;;;;;5098369;28;20182;-82
2022/04/11 05:51:12;;;;;;;3.30;1.93;;;7.50;77.20;;;;;;5087974;28;20171;-82
2022/04/11 05:53:38;;;;;;;3.60;1.70;;;7.50;77.80;;;;;;5116232;28;20171;-82
2022/04/11 05:56:05;;;;;;;5.10;2.10;;;7.50;77.50;;;;;;5099078;28;20642;-82
2022/04/11 05:58:31;;;;;;;6.63;2.40;;;7.60;77.80;;;;;;5098465;28;20171;-82
2022/04/11 06:00:58;;;;;;;7.22;2.83;;;7.70;77.90;;;;;;5082785;28;20627;-82
2022/04/11 06:03:25;;;;;;;4.07;1.83;;;7.80;78.20;;;;;;5099319;28;20167;-82
2022/04/11 06:05:50;;;;;;;3.53;1.90;;;7.90;78.40;;;;;;5099394;28;20197;-82
2022/04/11 06:08:16;;;;;;;4.90;2.20;;;7.90;78.60;;;;;;5099135;28;20515;-82
2022/04/11 06:10:44;;;;;;;7.05;2.00;;;8.00;79.40;;;;;;5082064;28;20571;-82
2022/04/11 06:13:14;;;;;;;2.83;1.50;;;8.10;78.90;;;;;;5099668;28;20247;-82
2022/04/11 06:15:40;;;;;;;7.13;2.55;;;8.10;79.10;;;;;;5099775;28;20281;-82
2022/04/11 06:18:06;;;;;;;3.73;1.90;;;8.20;79.10;;;;;;5117770;28;20690;-82
2022/04/11 06:20:32;;;;;;;6.28;2.33;;;8.30;79.50;;;;;;5083220;28;20194;-82
2022/04/11 06:22:58;;;;;;;3.93;2.33;;;8.40;79.40;;;;;;5118540;28;20166;-82
2022/04/11 06:25:24;;;;;;;3.83;2.33;;;8.40;79.80;;;;;;5100035;28;20191;-81
2022/04/11 06:27:49;;;;;;;3.70;2.07;;;8.60;80.00;;;;;;5100415;28;20160;-82
2022/04/11 06:30:15;;;;;;;3.87;2.47;;;8.70;80.20;;;;;;5100178;28;20256;-83
2022/04/11 06:32:43;;;;;;;3.58;2.15;;;8.80;80.20;;;;;;5101469;28;20202;-82
2022/04/11 06:35:10;;;;;;;3.35;1.90;;;8.90;80.30;;;;;;5100887;28;20282;-82
2022/04/11 06:37:36;;;;;;;3.73;2.17;;;9.20;80.70;;;;;;5099060;28;20202;-80
2022/04/11 06:40:04;;;;;;;4.65;2.17;;;9.60;81.60;;;;;;5098734;28;20669;-81
2022/04/11 06:42:31;;;;;;;3.15;1.40;;;10.20;81.10;;;;;;5099638;28;20623;-82
2022/04/11 06:44:58;;;;;;;3.40;1.80;;;11.00;83.70;;;;;;5099699;28;20684;-81
2022/04/11 06:47:27;;;;;;;2.75;1.50;;;11.80;83.30;;;;;;5100999;28;20554;-81
2022/04/11 06:49:53;;;;;;;2.77;1.53;;;12.60;83.20;;;;;;5104281;28;20163;-81
2022/04/11 06:52:19;;;;;;;4.00;1.50;;;13.20;78.80;;;;;;5117493;28;20179;-81
2022/04/11 06:54:45;;;;;;;4.33;1.50;;;13.80;79.30;;;;;;5119189;28;20197;-82
2022/04/11 06:57:11;;;;;;;3.33;1.60;;;14.60;79.30;;;;;;5119104;28;20630;-81
2022/04/11 06:59:37;;;;;;;5.50;1.60;;;15.30;75.70;;;;;;5119630;28;20622;-82
2022/04/11 07:02:02;;;;;;;2.90;1.30;;;16.00;75.10;;;;;;5101035;28;20242;-81
2022/04/11 07:04:28;;;;;;;3.00;1.30;;;16.60;75.60;;;;;;5118177;28;20173;-81
2022/04/11 07:06:55;;;;;;;3.40;1.77;;;17.10;72.60;;;;;;5119080;28;20200;-81
2022/04/11 07:09:20;;;;;;;3.10;1.33;;;17.70;72.40;;;;;;5117121;28;20565;-81
2022/04/11 07:11:46;;;;;;;3.77;1.40;;;18.30;73.30;;;;;;5117361;28;20175;-81
2022/04/11 07:14:13;;;;;;;3.33;1.40;;;18.80;70.80;;;;;;5116427;28;20167;-82
2022/04/11 07:16:39;;;;;;;3.93;1.70;;;19.40;66.70;;;;;;5115798;28;20624;-82
2022/04/11 07:19:06;;;;;;;3.10;1.60;;;19.80;67.40;;;;;;5115168;28;20657;-82
2022/04/11 07:21:32;;;;;;;1.90;1.00;;;20.40;66.50;;;;;;5114786;28;20207;-82
2022/04/11 07:23:59;;;;;;;3.10;1.50;;;20.90;64.00;;;;;;5096501;28;20588;-82
2022/04/11 07:26:24;;;;;;;2.87;1.10;;;21.20;61.30;;;;;;5114501;28;20612;-82
2022/04/11 07:28:50;;;;;;;5.10;1.30;;;21.50;63.00;;;;;;5114796;28;20534;-82
2022/04/11 07:31:16;;;;;;;3.03;1.40;;;21.60;58.20;;;;;;5113502;28;20175;-81
2022/04/11 07:33:41;;;;;;;2.43;1.30;;;21.60;57.90;;;;;;5097033;28;20163;-82
2022/04/11 07:36:07;;;;;;;4.93;1.33;;;21.70;58.50;;;;;;5096179;28;20812;-82
2022/04/11 07:38:33;;;;;;;3.60;1.40;;;21.70;56.40;;;;;;5113863;28;20163;-81
2022/04/11 07:40:59;;;;;;;2.13;1.13;;;21.80;56.00;;;;;;5095575;28;20627;-82
2022/04/11 07:43:24;;;;;;;2.00;1.10;;;22.00;56.90;;;;;;5113903;28;20199;-81
2022/04/11 07:45:50;;;;;;;2.80;1.20;;;22.30;57.50;;;;;;5113290;28;20197;-81
2022/04/11 07:48:16;;;;;;;4.97;2.97;;;22.70;56.90;;;;;;5113621;28;20163;-81
2022/04/11 07:50:42;;;;;;;2.53;1.50;;;22.80;55.60;;;;;;5112943;28;20170;-81
2022/04/11 07:53:07;;;;;;;3.17;1.20;;;22.80;54.80;;;;;;5078420;28;20529;-81
2022/04/11 07:55:33;;;;;;;3.30;1.37;;;22.60;53.60;;;;;;5113277;28;20200;-81
2022/04/11 07:58:00;;;;;;;2.23;1.50;;;22.50;53.00;;;;;;5116790;28;20175;-81
2022/04/11 08:00:26;;;;;;;3.70;1.37;;;22.40;50.50;;;;;;5116539;28;21009;-81
2022/04/11 08:02:53;;;;;;;3.03;1.27;;;22.30;51.00;;;;;;5116310;28;20589;-80
2022/04/11 08:05:19;;;;;;;5.13;1.70;;;22.40;53.00;;;;;;5116509;28;20557;-81
2022/04/11 08:07:46;;;;;;;4.57;1.53;;;22.70;51.90;;;;;;5114696;28;20668;-81
2022/04/11 08:10:13;;;;;;;3.80;1.83;;;22.70;52.00;;;;;;5116125;28;20596;-81
2022/04/11 08:12:40;;;;;;;2.43;1.50;;;22.90;50.10;;;;;;5116485;28;20961;-81
2022/04/11 08:15:06;;;;;;;3.80;1.60;;;22.80;50.90;;;;;;5117654;28;20657;-82
2022/04/11 08:17:32;;;;;;;4.43;1.63;;;22.70;49.90;;;;;;5116715;28;20660;-81
2022/04/11 08:19:57;;;;;;;2.10;1.40;;;22.60;49.70;;;;;;5116598;28;20707;-81
2022/04/11 08:22:23;;;;;;;5.93;1.13;;;22.70;50.30;;;;;;5116170;28;20182;-81
2022/04/11 08:24:49;;;;;;;5.40;1.27;;;22.90;51.40;;;;;;5115446;28;20241;-80
2022/04/11 08:27:15;;;;;;;2.17;1.33;;;23.40;52.50;;;;;;5115690;28;20630;-81
2022/04/11 08:29:41;;;;;;;2.50;1.27;;;23.90;51.60;;;;;;5097791;28;20167;-81
2022/04/11 08:32:07;;;;;;;3.20;1.60;;;24.10;49.90;;;;;;5098064;28;21058;-81
2022/04/11 08:34:33;;;;;;;2.70;1.17;;;23.80;48.20;;;;;;5097901;28;20527;-81
2022/04/11 08:36:58;;;;;;;4.00;1.10;;;23.80;49.70;;;;;;5097427;28;20565;-81
2022/04/11 08:39:24;;;;;;;5.23;1.23;;;24.00;49.70;;;;;;5116102;28;20190;-81
2022/04/11 08:41:52;;;;;;;2.53;1.47;;;24.40;51.20;;;;;;5116579;28;20155;-81
2022/04/11 08:44:19;;;;;;;1.90;1.10;;;24.50;48.40;;;;;;5115545;28;20178;-81
2022/04/11 08:46:44;;;;;;;2.43;1.03;;;24.50;47.10;;;;;;5115273;28;20603;-81
2022/04/11 08:49:11;;;;;;;3.33;1.33;;;24.30;46.50;;;;;;5115211;28;20987;-81
2022/04/11 08:51:37;;;;;;;1.90;1.00;;;24.00;45.50;;;;;;5115280;28;20184;-81
2022/04/11 08:54:05;;;;;;;2.50;0.93;;;23.80;45.70;;;;;;5115357;28;20968;-81
2022/04/11 08:56:32;;;;;;;4.07;0.97;;;23.60;45.10;;;;;;5080193;28;20601;-82
2022/04/11 08:58:58;;;;;;;2.90;1.67;;;23.70;46.20;;;;;;5114922;28;20585;-81
2022/04/11 09:01:25;;;;;;;2.60;1.10;;;23.80;46.20;;;;;;5115165;28;21178;-81
2022/04/11 09:03:51;;;;;;;3.87;1.53;;;23.60;44.70;;;;;;5114744;28;20182;-82
2022/04/11 09:06:18;;;;;;;1.80;1.30;;;23.80;45.00;;;;;;5114786;28;20599;-82
2022/04/11 09:08:50;;;;;;;2.90;1.07;;;23.80;44.00;;;;;;5096580;28;20609;-82
2022/04/11 09:11:35;;;;;;;1.53;1.00;;;23.50;42.70;;;;;;5096953;28;20568;-82
2022/04/11 09:14:03;;;;;;;2.10;1.00;;;23.20;40.60;;;;;;5082247;22;20671;-78
2022/04/11 09:16:49;;;;;;;2.63;1.00;;;22.90;42.10;;;;;;5052174;28;20941;-77
2022/04/11 09:19:23;;;;;;;3.60;1.50;;;23.00;43.00;;;;;;5053025;28;20583;-77
2022/04/11 09:21:50;;;;;;;3.83;1.20;;;23.00;43.20;;;;;;5052044;28;20617;-77
2022/04/11 09:24:19;;;;;;;4.13;1.37;;;23.10;43.00;;;;;;5070722;28;20606;-77
2022/04/11 09:26:51;;;;;;;2.50;1.40;;;23.30;44.40;;;;;;5073210;28;20559;-77
2022/04/11 09:29:17;;;;;;;2.90;1.20;;;23.70;44.90;;;;;;5073028;28;20573;-77
2022/04/11 09:31:43;;;;;;;2.00;1.10;;;24.00;45.10;;;;;;5073096;28;20661;-77
2022/04/11 09:34:19;;;;;;;2.77;1.10;;;24.40;45.30;;;;;;5073375;28;20192;-77
2022/04/11 09:36:50;;;;;;;2.77;1.20;;;24.60;44.70;;;;;;5073263;28;20590;-77
2022/04/11 09:39:26;;;;;;;3.30;1.27;;;24.80;44.60;;;;;;5071641;28;20562;-77
2022/04/11 09:41:53;;;;;;;4.00;1.20;;;24.80;44.50;;;;;;5071750;28;20627;-78
2022/04/11 09:44:24;;;;;;;2.97;1.20;;;25.20;45.20;;;;;;5071617;28;20602;-77
2022/04/11 09:46:52;;;;;;;3.50;1.20;;;25.30;44.00;;;;;;5071852;28;20619;-81
2022/04/11 09:49:18;;;;;;;2.13;0.90;;;25.70;44.30;;;;;;5072785;28;20559;-81
2022/04/11 09:52:09;;;;;;;2.43;1.30;;;25.80;45.00;;;;;;5073132;28;20563;-80
2022/04/11 09:54:37;;;;;;;2.47;1.20;;;26.10;44.00;;;;;;5073206;28;20570;-80
2022/04/11 09:57:05;;;;;;;2.47;1.50;;;25.80;40.80;;;;;;5072724;28;20559;-80
2022/04/11 09:59:31;;;;;;;3.00;1.03;;;25.40;41.20;;;;;;5055090;28;20571;-81
2022/04/11 10:01:58;;;;;;;2.10;0.90;;;25.30;41.00;;;;;;5072999;28;20915;-80
2022/04/11 10:04:24;;;;;;;2.33;1.00;;;25.30;41.50;;;;;;5071310;28;20641;-81
2022/04/11 10:06:51;;;;;;;2.20;1.10;;;25.50;41.90;;;;;;5071817;28;20575;-80
2022/04/11 10:09:21;;;;;;;1.77;0.90;;;25.50;41.30;;;;;;5072724;28;20566;-81
2022/04/11 10:11:47;;;;;;;4.30;1.20;;;25.30;39.70;;;;;;5054933;28;20581;-80
2022/04/11 10:14:23;;;;;;;2.73;1.10;;;25.00;39.20;;;;;;5072434;28;20615;-80
2022/04/11 10:16:55;;;;;;;3.10;1.23;;;25.00;39.40;;;;;;5073011;28;21125;-79
2022/04/11 10:19:28;;;;;;;2.43;0.90;;;24.70;37.80;;;;;;5070814;28;20585;-79
2022/04/11 10:21:59;;;;;;;2.80;1.10;;;24.70;39.20;;;;;;5072679;28;20571;-80
2022/04/11 10:24:38;;;;;;;2.17;1.10;;;24.90;38.40;;;;;;5054658;28;20605;-80
2022/04/11 10:27:20;;;;;;;3.00;1.00;;;25.10;38.40;;;;;;5072569;28;20563;-80
2022/04/11 10:29:49;;;;;;;2.20;0.90;;;25.00;37.10;;;;;;5072128;28;20563;-80
2022/04/11 10:32:17;;;;;;;4.07;1.63;;;24.90;37.60;;;;;;5071333;28;20566;-80
2022/04/11 10:34:46;;;;;;;4.80;1.60;;;24.70;35.80;;;;;;5084007;28;20570;-80
2022/04/11 10:37:14;;;;;;;2.87;1.50;;;24.10;35.10;;;;;;5092079;28;20566;-80
2022/04/11 10:39:40;;;;;;;2.53;1.00;;;23.40;34.20;;;;;;5091119;28;20562;-80
2022/04/11 10:42:07;;;;;;;2.13;1.10;;;23.00;35.60;;;;;;5092277;28;20618;-79
2022/04/11 10:44:53;;;;;;;1.87;1.10;;;22.90;36.10;;;;;;5092321;28;20573;-79
2022/04/11 10:47:26;;;;;;;2.33;1.07;;;22.60;36.00;;;;;;5092244;28;20653;-79
2022/04/11 10:49:55;;;;;;;2.60;1.20;;;22.70;36.80;;;;;;5091092;28;20574;-79
2022/04/11 10:52:32;;;;;;;2.73;1.20;;;22.40;36.60;;;;;;5092163;28;21112;-79
2022/04/11 10:55:07;;;;;;;2.27;1.00;;;21.90;34.60;;;;;;5074142;28;20920;-79
2022/04/11 10:57:36;;;;;;;3.37;1.13;;;21.60;35.80;;;;;;5090943;28;20672;-79
2022/04/11 11:00:08;;;;;;;3.37;1.20;;;21.40;35.70;;;;;;5091917;28;20626;-79
2022/04/11 11:02:52;;;;;;;2.27;1.10;;;21.30;36.40;;;;;;5092209;28;21001;-80
2022/04/11 11:05:25;;;;;;;2.00;1.40;;;21.20;36.00;;;;;;5092090;28;20577;-79
2022/04/11 11:08:13;;;;;;;2.97;1.20;;;21.20;37.00;;;;;;5090698;28;20596;-79
2022/04/11 11:10:45;;;;;;;2.90;1.00;;;21.30;37.30;;;;;;5092041;28;20897;-78
2022/04/11 11:13:39;;;;;;;2.20;1.30;;;21.30;37.00;;;;;;5090665;28;20605;-79
2022/04/11 11:16:07;;;;;;;3.07;1.53;;;21.30;37.70;;;;;;5090986;28;20938;-79
2022/04/11 11:18:51;;;;;;;2.57;1.20;;;21.60;37.70;;;;;;5090541;28;20566;-79
2022/04/11 11:21:33;;;;;;;2.67;1.00;;;21.50;37.20;;;;;;5091751;28;20191;-79
2022/04/11 11:24:04;;;;;;;2.70;1.10;;;21.50;37.50;;;;;;5091836;28;20625;-79
2022/04/11 11:26:45;;;;;;;2.60;1.07;;;21.50;37.00;;;;;;5090705;28;20650;-79
2022/04/11 11:29:40;;;;;;;2.30;1.03;;;21.40;36.60;;;;;;5091513;28;20554;-80
2022/04/11 11:32:06;;;;;;;2.63;1.40;;;21.20;36.60;;;;;;5080145;28;20612;-80
2022/04/11 11:34:36;;;;;;;3.37;1.10;;;21.00;36.60;;;;;;5091749;28;20557;-80
2022/04/11 11:37:13;;;;;;;3.83;1.50;;;20.90;37.20;;;;;;5091479;28;20648;-80
2022/04/11 11:39:41;;;;;;;2.37;1.17;;;20.90;37.80;;;;;;5091639;28;20914;-80
2022/04/11 11:42:11;;;;;;;4.47;1.17;;;21.00;38.30;;;;;;5091550;28;20558;-79
2022/04/11 11:44:50;;;;;;;2.17;1.03;;;21.00;38.10;;;;;;5090223;28;20573;-80
2022/04/11 11:47:25;;;;;;;3.43;1.90;;;21.10;39.00;;;;;;5090000;28;20583;-80
2022/04/11 11:49:51;;;;;;;4.00;1.50;;;21.10;38.40;;;;;;5091419;28;20567;-80
2022/04/11 11:52:21;;;;;;;2.90;1.20;;;21.20;39.00;;;;;;5091165;28;20570;-80
2022/04/11 11:54:50;;;;;;;2.80;1.40;;;21.30;39.10;;;;;;5091383;28;20178;-80
2022/04/11 11:57:19;;;;;;;5.90;1.30;;;21.60;38.90;;;;;;5091138;28;20570;-80
2022/04/11 11:59:49;;;;;;;3.30;1.53;;;21.50;38.80;;;;;;5090065;28;20570;-80
2022/04/11 12:04:59;;;;;;;2.60;1.30;;;21.40;38.90;;;;;;5090052;28;20575;-79
2022/04/11 12:07:24;;;;;;;3.67;1.60;;;21.50;39.20;;;;;;5091047;28;20558;-80
2022/04/11 12:09:50;;;;;;;3.80;1.83;;;21.50;38.70;;;;;;5091353;28;20252;-80
2022/04/11 12:12:20;;;;;;;2.20;1.20;;;21.30;38.40;;;;;;5091135;28;20255;-79
2022/04/11 12:15:01;;;;;;;1.70;1.30;;;21.20;38.80;;;;;;5091267;28;21093;-79
2022/04/11 12:17:43;;;;;;;4.03;1.57;;;21.20;38.80;;;;;;5090967;28;20592;-80
2022/04/11 12:20:18;;;;;;;2.70;1.43;;;21.10;38.20;;;;;;5089813;28;20976;-79
2022/04/11 12:23:05;;;;;;;2.70;1.23;;;21.00;38.30;;;;;;5091254;28;20976;-79
2022/04/11 12:25:34;;;;;;;4.17;1.50;;;21.00;39.00;;;;;;5073085;28;20684;-79
2022/04/11 12:28:14;;;;;;;4.47;2.20;;;21.20;39.30;;;;;;5089576;28;20665;-80
2022/04/11 12:30:46;;;;;;;2.90;1.33;;;21.10;38.50;;;;;;5091005;28;20871;-80
2022/04/11 12:33:49;;;;;;;2.03;0.93;;;21.10;38.50;;;;;;5091428;28;20901;-80
2022/04/11 12:36:22;;;;;;;3.13;1.20;;;21.00;39.10;;;;;;5085813;28;20573;-79
2022/04/11 12:38:56;;;;;;;3.23;1.50;;;21.00;39.10;;;;;;5059368;28;20583;-80
2022/04/11 12:41:43;;;;;;;4.87;1.40;;;20.90;39.00;;;;;;5068284;28;20755;-79
2022/04/11 12:44:17;;;;;;;4.03;1.57;;;20.90;39.20;;;;;;5070611;28;21009;-80
2022/04/11 12:46:45;;;;;;;5.73;1.57;;;20.70;38.80;;;;;;5066859;28;20570;-80
2022/04/11 12:49:14;;;;;;;2.13;1.10;;;20.50;38.80;;;;;;5074274;28;20596;-80
2022/04/11 12:51:40;;;;;;;1.80;1.20;;;20.40;39.30;;;;;;5074458;28;20631;-79
2022/04/11 12:54:12;;;;;;;2.70;1.50;;;20.40;39.60;;;;;;5073112;28;20693;-81
2022/04/11 12:56:46;;;;;;;2.70;1.20;;;20.40;39.60;;;;;;5073418;28;20561;-80
2022/04/11 12:59:27;;;;;;;4.03;1.17;;;20.20;39.50;;;;;;5070156;28;20571;-79
2022/04/11 13:02:03;;;;;;;2.50;1.30;;;20.20;39.90;;;;;;5068535;28;21013;-79
2022/04/11 13:04:36;;;;;;;4.33;1.40;;;20.00;39.80;;;;;;5067926;28;21141;-79